Rigolet, Canada
Current Conditions -  °F | °C
As of 7:00 AM on Tuesday 21 Oct 2014 (Local Time) from CWCA Reporting Station
Drizzle Drizzle  
Wind Chill: 27°   Ceiling: 1200
Heat Index: 37°   Visibility: 7mi
Dew Point: 34°   Wind: 22mph
Humidity: 87%   Direction: 300°WNW
Pressure: 29.51"   Gusts: NA
Location:  54.17°N, 58.43°W
Report Text: CWCA 211000Z 30019KT 7SM -DZ SCT007 OVC012 03/01 A2951 RMK ST3SC5 PRESRR SLP993
Loading
Personal Weather Stations






























Interactive Weather Map
Tropical Storm Tracking
New forecast layout! Learn more

10-Day Weather Forecast

Advertisements
Track Severe Weather on mobile